Time;durP1;ratioP1;P1;durP2;ratioP2;P2;SDS_P1;SDS_P2;PMS_P1;PMS_P2;Temp;Humidity;BMP_temperature;BMP_pressure;BME280_temperature;BME280_humidity;BME280_pressure;Samples;Min_cycle;Max_cycle;Signal;HPM_P1;HPM_P2
2022/11/08 00:02:07;;;;;;;26.70;17.02;;;10.40;99.90;;;;;;5052607;28;20044;-66
2022/11/08 00:15:18;;;;;;;24.08;14.65;;;10.50;99.90;;;;;;5052546;28;20040;-66
2022/11/08 00:18:21;;;;;;;17.73;9.18;;;10.60;99.90;;;;;;5052826;28;20044;-66
2022/11/08 00:21:25;;;;;;;21.85;14.70;;;10.70;99.90;;;;;;5052391;28;20040;-66
2022/11/08 00:24:29;;;;;;;32.20;19.30;;;10.60;99.90;;;;;;5052447;28;20068;-66
2022/11/08 00:27:33;;;;;;;28.23;17.05;;;10.50;99.90;;;;;;5052634;28;20731;-66
2022/11/08 00:30:37;;;;;;;26.63;16.30;;;10.40;99.90;;;;;;5052445;28;20155;-66
2022/11/08 00:33:41;;;;;;;26.10;17.05;;;10.40;99.90;;;;;;5052203;28;20111;-66
2022/11/08 00:36:44;;;;;;;24.52;16.33;;;10.30;99.90;;;;;;5052171;28;20060;-66
2022/11/08 00:39:49;;;;;;;25.05;16.33;;;10.30;99.90;;;;;;5052316;28;20511;-66
2022/11/08 00:42:53;;;;;;;28.23;16.75;;;10.20;99.90;;;;;;5052122;28;20499;-66
2022/11/08 00:45:56;;;;;;;28.38;17.00;;;10.20;99.90;;;;;;5052476;28;20495;-66
2022/11/08 00:49:01;;;;;;;34.83;18.52;;;10.10;99.90;;;;;;5052504;28;20040;-67
2022/11/08 00:52:05;;;;;;;38.60;20.15;;;10.00;99.90;;;;;;5052143;28;20051;-66
2022/11/08 00:55:09;;;;;;;36.67;19.65;;;10.10;99.90;;;;;;5052494;28;20048;-66
2022/11/08 00:58:12;;;;;;;31.90;18.58;;;10.20;99.90;;;;;;5052081;28;20048;-66
2022/11/08 01:01:19;;;;;;;31.10;18.30;;;10.30;99.90;;;;;;5052175;28;20475;-66
2022/11/08 01:04:23;;;;;;;31.67;18.83;;;10.30;99.90;;;;;;5051557;28;20052;-66
2022/11/08 01:07:27;;;;;;;29.48;18.27;;;10.20;99.90;;;;;;5051891;28;20392;-66
2022/11/08 01:10:31;;;;;;;31.17;18.50;;;10.20;99.90;;;;;;5051981;28;20052;-67
2022/11/08 01:13:35;;;;;;;30.40;18.10;;;10.30;99.90;;;;;;5051375;28;20044;-67
2022/11/08 01:16:40;;;;;;;28.33;17.15;;;10.40;99.90;;;;;;5051565;28;20411;-66
2022/11/08 01:19:44;;;;;;;26.77;16.50;;;10.40;99.90;;;;;;5051516;28;20048;-66
2022/11/08 01:22:48;;;;;;;30.90;17.73;;;10.60;99.90;;;;;;5051830;28;20503;-66
2022/11/08 01:25:52;;;;;;;29.88;17.42;;;10.60;99.90;;;;;;5050661;28;20420;-66
2022/11/08 01:28:57;;;;;;;25.52;16.90;;;10.50;99.90;;;;;;5051453;28;20086;-66
2022/11/08 01:32:01;;;;;;;27.92;17.88;;;10.60;99.90;;;;;;5051414;28;20044;-66
2022/11/08 01:35:05;;;;;;;24.35;17.75;;;10.60;99.90;;;;;;5051304;28;20068;-66
2022/11/08 01:38:10;;;;;;;27.05;17.13;;;10.70;99.90;;;;;;5052228;28;20040;-66
2022/11/08 01:41:15;;;;;;;27.05;18.02;;;10.70;99.90;;;;;;5051341;28;20067;-66
2022/11/08 01:44:20;;;;;;;23.65;17.60;;;10.70;99.90;;;;;;5051072;28;20063;-66
2022/11/08 01:47:24;;;;;;;27.35;18.45;;;10.70;99.90;;;;;;5051116;28;20381;-66
2022/11/08 01:50:29;;;;;;;30.85;18.98;;;10.70;99.90;;;;;;5051509;28;20052;-66
2022/11/08 01:53:33;;;;;;;27.58;17.80;;;10.70;99.90;;;;;;5051331;28;20060;-66
2022/11/08 01:56:39;;;;;;;25.70;16.63;;;10.70;99.90;;;;;;5051510;28;20036;-66
2022/11/08 01:59:46;;;;;;;26.10;17.23;;;10.70;99.90;;;;;;5051300;28;20052;-66
2022/11/08 02:03:02;;;;;;;25.10;16.13;;;10.70;99.90;;;;;;5051339;28;20056;-66
2022/11/08 02:06:07;;;;;;;21.55;14.80;;;10.80;99.90;;;;;;5051032;28;20044;-67
2022/11/08 02:09:14;;;;;;;25.05;15.35;;;10.70;99.90;;;;;;5051154;28;20224;-66
2022/11/08 02:12:21;;;;;;;23.15;15.23;;;10.70;99.90;;;;;;5051500;28;20036;-66
2022/11/08 02:15:25;;;;;;;24.65;14.88;;;10.70;99.90;;;;;;5051033;28;20047;-66
2022/11/08 02:18:31;;;;;;;29.02;15.90;;;10.70;99.90;;;;;;5051128;28;20502;-66
2022/11/08 02:21:44;;;;;;;24.23;15.02;;;10.70;99.90;;;;;;5051055;28;20048;-67
2022/11/08 02:24:48;;;;;;;20.70;13.93;;;10.60;99.90;;;;;;5053416;28;20051;-66
2022/11/08 02:27:52;;;;;;;26.75;16.42;;;10.60;99.90;;;;;;5054697;28;20043;-66
2022/11/08 02:30:56;;;;;;;21.98;14.95;;;10.50;99.90;;;;;;5054991;28;20040;-66
2022/11/08 02:34:00;;;;;;;20.02;14.20;;;10.50;99.90;;;;;;5054812;28;20060;-66
2022/11/08 02:37:05;;;;;;;21.60;14.07;;;10.50;99.90;;;;;;5054800;28;20051;-66
2022/11/08 02:40:10;;;;;;;22.95;13.75;;;10.60;99.90;;;;;;5042456;28;20107;-66
2022/11/08 02:43:14;;;;;;;24.33;12.00;;;10.70;99.90;;;;;;5054562;28;20047;-66
2022/11/08 02:46:18;;;;;;;18.17;11.75;;;10.70;99.90;;;;;;5054531;28;20036;-66
2022/11/08 02:49:22;;;;;;;18.92;11.43;;;10.70;99.90;;;;;;5054672;28;20052;-66
2022/11/08 02:52:26;;;;;;;16.15;11.90;;;10.70;99.90;;;;;;5054378;28;20044;-66
2022/11/08 02:55:31;;;;;;;18.75;12.32;;;10.70;99.90;;;;;;5054398;28;20052;-66
2022/11/08 02:58:35;;;;;;;23.75;12.00;;;10.40;99.90;;;;;;5054275;28;20052;-66
2022/11/08 03:01:40;;;;;;;16.65;12.63;;;10.40;99.90;;;;;;5054256;28;20044;-66
2022/11/08 03:04:44;;;;;;;18.35;12.80;;;10.30;99.90;;;;;;5054014;28;20419;-66
2022/11/08 03:07:48;;;;;;;26.42;15.98;;;10.40;99.90;;;;;;5054401;28;20043;-66
2022/11/08 03:10:51;;;;;;;26.02;15.68;;;10.10;99.90;;;;;;5053900;28;20055;-66
2022/11/08 03:13:56;;;;;;;17.67;12.90;;;9.90;99.90;;;;;;5053741;28;20388;-66
2022/11/08 03:17:00;;;;;;;31.90;17.08;;;9.80;99.90;;;;;;5054031;28;20048;-66
2022/11/08 03:20:04;;;;;;;21.40;15.27;;;9.80;99.90;;;;;;5053735;28;20059;-65
2022/11/08 03:23:09;;;;;;;21.15;13.70;;;9.70;99.90;;;;;;5053846;28;20049;-66
2022/11/08 03:26:13;;;;;;;17.23;12.23;;;9.70;99.90;;;;;;5053535;28;20055;-66
2022/11/08 03:29:17;;;;;;;20.90;14.40;;;9.60;99.90;;;;;;5053789;28;20056;-66
2022/11/08 03:32:21;;;;;;;20.38;13.68;;;9.50;99.90;;;;;;5053677;28;20056;-66
2022/11/08 03:35:25;;;;;;;93.50;20.15;;;9.50;99.90;;;;;;5040729;28;20044;-66
2022/11/08 03:38:29;;;;;;;23.33;14.95;;;9.30;99.90;;;;;;5053532;28;20052;-66
2022/11/08 03:41:33;;;;;;;26.70;16.13;;;9.20;99.90;;;;;;5053414;28;20044;-67
2022/11/08 03:44:37;;;;;;;27.95;15.38;;;9.10;99.90;;;;;;5053088;28;20048;-66
2022/11/08 03:47:46;;;;;;;21.10;14.55;;;9.00;99.90;;;;;;5053411;28;20048;-66
2022/11/08 03:50:50;;;;;;;115.22;17.63;;;8.80;99.90;;;;;;5053363;28;20048;-66
2022/11/08 03:53:54;;;;;;;274.40;23.10;;;8.70;99.90;;;;;;5053217;28;20044;-66
2022/11/08 03:56:58;;;;;;;228.98;22.42;;;8.70;99.90;;;;;;5053193;28;20610;-67
2022/11/08 04:00:04;;;;;;;43.47;13.50;;;8.70;99.90;;;;;;5053406;28;20048;-67
2022/11/08 04:03:15;;;;;;;23.02;13.27;;;8.60;99.90;;;;;;5052737;28;20044;-66
2022/11/08 04:06:19;;;;;;;20.42;13.23;;;8.50;99.90;;;;;;5052889;28;20048;-66
2022/11/08 04:09:23;;;;;;;18.45;12.70;;;8.60;99.90;;;;;;5052767;28;20044;-66
2022/11/08 04:15:55;;;;;;;17.52;11.32;;;8.60;99.90;;;;;;5052895;28;20051;-66
2022/11/08 04:22:21;;;;;;;14.98;9.80;;;8.60;99.90;;;;;;5052482;28;20047;-66
2022/11/08 04:25:25;;;;;;;13.75;8.52;;;8.70;99.90;;;;;;5052440;28;20044;-66
2022/11/08 04:28:31;;;;;;;15.15;9.52;;;8.70;99.90;;;;;;5053002;28;20036;-66
2022/11/08 04:31:35;;;;;;;14.05;9.13;;;8.80;99.90;;;;;;5052526;28;20048;-66
2022/11/08 04:34:39;;;;;;;12.65;7.85;;;8.80;99.90;;;;;;5052608;28;20044;-66
2022/11/08 04:37:43;;;;;;;15.00;7.80;;;8.80;99.90;;;;;;5052266;28;20526;-66
2022/11/08 04:40:47;;;;;;;11.48;8.13;;;8.80;99.90;;;;;;5052671;28;20044;-66
2022/11/08 04:43:53;;;;;;;15.73;7.85;;;8.90;99.90;;;;;;5052241;28;20052;-66
2022/11/08 04:46:58;;;;;;;11.68;8.05;;;8.80;99.90;;;;;;5051842;28;20040;-66
2022/11/08 04:50:02;;;;;;;14.55;7.45;;;8.90;99.90;;;;;;5052548;28;20044;-66
2022/11/08 04:53:05;;;;;;;10.32;7.18;;;8.90;99.90;;;;;;5051643;28;20047;-66
2022/11/08 04:56:12;;;;;;;9.13;6.65;;;8.90;99.90;;;;;;5052246;28;20044;-67
2022/11/08 04:59:16;;;;;;;17.83;7.70;;;8.90;99.90;;;;;;5051966;28;20499;-66
2022/11/08 05:02:20;;;;;;;11.55;6.95;;;8.80;99.90;;;;;;5052203;28;20048;-66
2022/11/08 05:05:24;;;;;;;15.02;7.85;;;8.80;99.90;;;;;;5051901;28;20392;-66
2022/11/08 05:08:29;;;;;;;12.32;7.50;;;8.80;99.90;;;;;;5051880;28;20031;-66
2022/11/08 05:11:32;;;;;;;10.57;7.43;;;8.70;99.90;;;;;;5051819;28;20060;-66
2022/11/08 05:14:36;;;;;;;12.63;7.50;;;8.70;99.90;;;;;;5051558;28;20100;-65
2022/11/08 05:17:41;;;;;;;9.82;6.45;;;8.70;99.90;;;;;;5052054;28;20052;-66
2022/11/08 05:24:16;;;;;;;11.20;7.20;;;8.60;99.90;;;;;;5051556;28;20044;-66
2022/11/08 05:27:19;;;;;;;12.95;7.40;;;8.50;99.90;;;;;;5051841;28;20058;-65
2022/11/08 05:30:23;;;;;;;13.32;7.82;;;8.40;99.90;;;;;;5051882;28;20048;-66
2022/11/08 05:33:28;;;;;;;11.73;7.57;;;8.40;99.90;;;;;;5051675;28;20455;-66
2022/11/08 05:36:32;;;;;;;9.90;7.00;;;8.40;99.90;;;;;;5051551;28;20048;-66
2022/11/08 05:39:36;;;;;;;9.13;6.97;;;8.40;99.90;;;;;;5051375;28;20518;-66
2022/11/08 05:42:40;;;;;;;12.88;8.93;;;8.40;99.90;;;;;;5051620;28;20103;-66
2022/11/08 05:45:45;;;;;;;17.10;10.63;;;8.30;99.90;;;;;;5050989;28;20048;-66
2022/11/08 05:48:50;;;;;;;15.15;9.98;;;8.30;99.90;;;;;;5051343;28;20123;-66
2022/11/08 05:51:53;;;;;;;19.38;10.93;;;8.30;99.90;;;;;;5051169;28;20051;-66
2022/11/08 05:54:58;;;;;;;16.60;10.70;;;8.20;99.90;;;;;;5051357;28;20047;-66
2022/11/08 05:58:01;;;;;;;16.75;10.35;;;8.20;99.90;;;;;;5052875;28;20383;-66
2022/11/08 06:01:09;;;;;;;13.98;9.95;;;8.20;99.90;;;;;;5055697;28;20491;-66
2022/11/08 06:04:13;;;;;;;17.20;10.80;;;8.20;99.90;;;;;;5055147;28;20044;-67
2022/11/08 06:07:16;;;;;;;17.13;10.90;;;8.20;99.90;;;;;;5055508;28;20039;-66
2022/11/08 06:10:21;;;;;;;16.63;9.80;;;8.20;99.90;;;;;;5055258;28;20053;-66
2022/11/08 06:13:24;;;;;;;15.88;10.55;;;8.20;99.90;;;;;;5055045;28;20039;-66
2022/11/08 06:16:28;;;;;;;15.18;10.15;;;8.20;99.90;;;;;;5055459;28;20052;-66
2022/11/08 06:19:32;;;;;;;14.85;10.57;;;8.20;99.90;;;;;;5054906;28;20048;-66
2022/11/08 06:22:38;;;;;;;13.48;10.30;;;8.30;99.90;;;;;;5055320;28;20321;-66
2022/11/08 06:25:44;;;;;;;16.75;9.52;;;8.30;99.90;;;;;;5055471;28;20044;-66
2022/11/08 06:28:49;;;;;;;17.38;9.75;;;8.40;99.90;;;;;;5054994;28;20507;-66
2022/11/08 06:31:53;;;;;;;15.90;11.18;;;8.40;99.90;;;;;;5054774;28;20494;-66
2022/11/08 06:34:57;;;;;;;17.52;9.20;;;8.50;99.90;;;;;;5054606;28;20048;-67
2022/11/08 06:38:01;;;;;;;14.48;9.68;;;8.60;99.90;;;;;;5054613;28;20506;-66
2022/11/08 06:41:05;;;;;;;16.27;7.63;;;9.30;99.90;;;;;;5054588;28;20052;-66
2022/11/08 06:44:09;;;;;;;27.25;8.57;;;10.00;99.90;;;;;;5054700;28;20044;-65
2022/11/08 06:47:14;;;;;;;12.15;7.28;;;11.40;99.90;;;;;;5042007;28;20044;-66
2022/11/08 06:50:18;;;;;;;10.63;6.45;;;13.30;99.90;;;;;;5030430;28;20048;-66
2022/11/08 06:53:21;;;;;;;6.28;4.95;;;15.10;99.90;;;;;;5053904;28;20036;-67
2022/11/08 06:56:25;;;;;;;9.20;5.65;;;17.10;99.90;;;;;;5053641;28;20048;-67
2022/11/08 06:59:29;;;;;;;12.27;7.53;;;19.00;99.90;;;;;;5054093;28;20044;-67
2022/11/08 07:02:33;;;;;;;10.07;7.47;;;19.10;99.90;;;;;;5053945;28;20048;-66
2022/11/08 07:05:37;;;;;;;9.45;6.72;;;19.40;99.90;;;;;;5052894;28;20068;-65
2022/11/08 07:08:41;;;;;;;8.90;5.97;;;20.90;99.90;;;;;;5045226;28;20044;-66
2022/11/08 07:11:45;;;;;;;8.15;5.72;;;22.30;99.90;;;;;;5047129;28;20364;-66
2022/11/08 07:14:49;;;;;;;9.32;5.40;;;23.10;99.90;;;;;;5034088;28;20028;-66
2022/11/08 07:17:53;;;;;;;7.07;5.43;;;22.50;98.70;;;;;;5033498;28;20045;-66
2022/11/08 07:20:58;;;;;;;9.15;6.32;;;22.80;99.20;;;;;;5043541;28;20040;-66
2022/11/08 07:24:03;;;;;;;8.38;5.18;;;22.90;98.80;;;;;;5044260;28;20044;-67
2022/11/08 07:27:06;;;;;;;8.38;5.32;;;24.30;98.50;;;;;;5034625;28;20041;-66
2022/11/08 07:30:11;;;;;;;6.13;4.18;;;25.40;96.60;;;;;;5033807;28;20040;-66
2022/11/08 07:33:15;;;;;;;6.93;4.07;;;25.80;94.80;;;;;;5048344;28;20052;-66
2022/11/08 07:36:19;;;;;;;4.95;3.95;;;26.30;94.40;;;;;;5053010;28;20410;-66
2022/11/08 07:39:23;;;;;;;8.70;5.20;;;26.80;94.10;;;;;;5049802;28;20511;-66
2022/11/08 07:42:27;;;;;;;6.28;4.25;;;27.40;92.40;;;;;;5044568;28;20055;-67
2022/11/08 07:45:41;;;;;;;5.85;3.72;;;27.70;92.00;;;;;;5040665;28;20064;-66
2022/11/08 07:48:45;;;;;;;5.35;3.53;;;28.50;91.70;;;;;;5033233;28;20417;-66
2022/11/08 07:51:49;;;;;;;6.32;3.83;;;29.70;90.50;;;;;;5033467;28;20041;-67
2022/11/08 07:54:53;;;;;;;9.38;3.67;;;26.70;90.00;;;;;;5034488;28;20503;-66
2022/11/08 07:58:00;;;;;;;12.50;5.10;;;22.80;93.60;;;;;;5037142;28;20048;-66
2022/11/08 08:01:05;;;;;;;7.35;4.63;;;20.90;96.30;;;;;;5033876;28;20055;-66
2022/11/08 08:04:11;;;;;;;10.05;5.05;;;20.50;98.00;;;;;;5039742;28;20424;-66
2022/11/08 08:07:15;;;;;;;7.55;3.85;;;21.90;97.00;;;;;;5025596;28;20068;-66
2022/11/08 08:10:19;;;;;;;5.90;4.07;;;23.00;95.60;;;;;;5037518;28;20044;-67
2022/11/08 08:13:23;;;;;;;4.82;3.63;;;25.70;94.00;;;;;;5040164;28;20056;-67
2022/11/08 08:16:27;;;;;;;5.32;4.00;;;26.40;92.10;;;;;;5041035;28;20392;-66
2022/11/08 08:19:31;;;;;;;6.35;3.72;;;24.70;92.10;;;;;;5032962;28;20064;-67
2022/11/08 08:22:35;;;;;;;6.97;4.00;;;23.80;93.00;;;;;;5035172;28;20048;-66
2022/11/08 08:25:40;;;;;;;6.75;3.50;;;23.60;93.50;;;;;;5038092;28;20048;-67
2022/11/08 08:28:44;;;;;;;4.53;3.75;;;25.20;93.20;;;;;;5033546;28;20052;-66
2022/11/08 08:31:48;;;;;;;6.53;3.65;;;25.60;92.40;;;;;;5045798;28;20494;-67
2022/11/08 08:34:51;;;;;;;5.85;4.38;;;26.10;91.80;;;;;;5039683;28;20064;-67
2022/11/08 08:38:00;;;;;;;7.75;4.72;;;24.60;92.00;;;;;;5044369;28;20490;-66
2022/11/08 08:41:04;;;;;;;10.13;6.45;;;24.80;92.30;;;;;;5036735;28;20052;-66
2022/11/08 08:44:15;;;;;;;8.57;6.05;;;25.10;92.20;;;;;;5067096;28;20386;-54
2022/11/08 08:47:19;;;;;;;6.80;5.30;;;24.80;92.50;;;;;;5067718;28;20036;-53
2022/11/08 08:50:24;;;;;;;6.97;5.07;;;24.10;92.90;;;;;;5055191;28;20037;-55
2022/11/08 08:53:28;;;;;;;6.30;4.47;;;24.90;92.90;;;;;;5046607;28;20038;-53
2022/11/08 08:56:32;;;;;;;4.45;3.78;;;24.80;93.10;;;;;;5046469;28;20045;-52
2022/11/08 08:59:36;;;;;;;5.63;4.13;;;23.20;92.60;;;;;;5045448;28;20033;-55
2022/11/08 09:02:41;;;;;;;5.28;3.78;;;21.20;95.30;;;;;;5041347;28;20487;-54
2022/11/08 09:05:45;;;;;;;6.88;3.83;;;24.30;93.90;;;;;;5057107;28;20049;-52
2022/11/08 09:08:49;;;;;;;5.72;3.78;;;26.40;91.60;;;;;;5046008;28;20033;-55
2022/11/08 09:11:53;;;;;;;5.15;3.85;;;28.30;90.70;;;;;;5046265;28;20033;-54
2022/11/08 09:14:57;;;;;;;7.55;4.50;;;29.50;90.00;;;;;;5054132;28;20041;-52
2022/11/08 09:18:01;;;;;;;5.80;3.55;;;30.70;87.30;;;;;;5046546;28;20404;-55
2022/11/08 09:21:05;;;;;;;6.65;4.05;;;30.50;85.90;;;;;;5046493;28;20049;-52
2022/11/08 09:24:09;;;;;;;8.05;4.05;;;29.20;86.70;;;;;;5026728;28;20041;-55
2022/11/08 09:27:13;;;;;;;4.78;3.72;;;30.40;84.80;;;;;;5042333;28;20041;-55
2022/11/08 09:30:17;;;;;;;7.85;3.90;;;29.70;85.60;;;;;;5051060;28;20039;-51
2022/11/08 09:33:21;;;;;;;5.20;3.88;;;28.60;86.80;;;;;;5045809;28;20037;-52
2022/11/08 09:36:25;;;;;;;4.75;3.47;;;28.70;86.80;;;;;;5045507;28;20037;-51
2022/11/08 09:39:29;;;;;;;5.65;3.20;;;29.70;86.30;;;;;;5051245;28;20034;-54
2022/11/08 09:42:48;;;;;;;4.57;3.70;;;30.50;85.80;;;;;;5057245;28;20384;-55
2022/11/08 09:45:54;;;;;;;6.55;4.30;;;31.10;84.80;;;;;;5045385;28;20025;-53
2022/11/08 09:49:00;;;;;;;7.55;4.00;;;31.40;83.80;;;;;;5042705;28;20025;-54
2022/11/08 09:52:04;;;;;;;6.60;4.20;;;31.40;83.70;;;;;;5049476;28;20464;-54
2022/11/08 09:55:27;;;;;;;5.18;4.05;;;30.60;83.50;;;;;;5034397;28;20029;-54
2022/11/08 09:58:40;;;;;;;4.55;3.60;;;30.90;83.20;;;;;;5032862;28;20049;-52
2022/11/08 10:01:43;;;;;;;6.82;3.92;;;31.30;83.40;;;;;;5027920;28;20381;-56
2022/11/08 10:04:58;;;;;;;7.65;4.45;;;32.90;81.60;;;;;;5037987;28;20492;-51
2022/11/08 10:08:16;;;;;;;5.35;3.80;;;33.40;81.20;;;;;;5031741;28;20504;-54
2022/11/08 10:11:32;;;;;;;5.78;4.25;;;28.70;83.40;;;;;;5032859;28;20037;-52
2022/11/08 10:15:03;;;;;;;5.53;4.05;;;29.60;85.80;;;;;;5030381;28;20393;-56
2022/11/08 10:18:51;;;;;;;6.53;4.20;;;31.90;82.20;;;;;;5029464;28;20041;-53
2022/11/08 10:22:01;;;;;;;6.90;4.05;;;30.80;83.70;;;;;;5030503;28;20033;-53
2022/11/08 10:25:34;;;;;;;7.30;4.43;;;31.70;80.90;;;;;;5034051;28;20045;-55
2022/11/08 10:28:49;;;;;;;8.25;4.35;;;30.30;83.80;;;;;;5026129;28;20037;-52
2022/11/08 10:32:00;;;;;;;6.78;4.80;;;31.40;83.90;;;;;;5038143;28;20033;-54
2022/11/08 10:35:10;;;;;;;8.48;5.25;;;31.20;82.40;;;;;;5038226;28;20052;-56
2022/11/08 10:38:24;;;;;;;6.75;5.30;;;31.10;82.60;;;;;;5039421;28;20036;-51
2022/11/08 10:41:41;;;;;;;7.05;4.78;;;30.00;84.50;;;;;;5022919;28;20041;-52
2022/11/08 10:44:45;;;;;;;9.43;5.45;;;31.30;83.20;;;;;;5027126;28;20038;-54
2022/11/08 10:47:51;;;;;;;9.48;5.13;;;33.40;81.70;;;;;;5031561;28;20036;-55
2022/11/08 10:50:55;;;;;;;6.70;4.82;;;34.00;79.70;;;;;;5027575;28;20029;-56
2022/11/08 10:54:00;;;;;;;6.43;4.75;;;35.40;78.90;;;;;;5030499;28;20496;-52
2022/11/08 10:57:04;;;;;;;8.05;5.25;;;32.00;80.30;;;;;;5037707;28;20052;-51
2022/11/08 11:00:20;;;;;;;11.18;5.57;;;33.60;79.30;;;;;;5029345;28;20041;-55
2022/11/08 11:03:29;;;;;;;7.60;5.07;;;34.90;78.90;;;;;;5024958;28;20040;-56
2022/11/08 11:06:33;;;;;;;7.10;5.05;;;32.50;78.30;;;;;;5032084;28;20377;-55
2022/11/08 11:09:37;;;;;;;8.75;5.78;;;34.70;78.20;;;;;;5027038;28;20033;-52
2022/11/08 11:12:41;;;;;;;10.93;5.80;;;35.30;76.90;;;;;;5029759;28;20038;-54
2022/11/08 11:16:03;;;;;;;6.65;5.30;;;36.30;76.50;;;;;;5023893;28;20056;-56
2022/11/08 11:19:13;;;;;;;9.18;5.28;;;34.20;76.70;;;;;;5028922;28;20056;-53
2022/11/08 11:22:32;;;;;;;7.78;5.15;;;35.70;76.40;;;;;;5025130;28;20033;-56
2022/11/08 11:25:37;;;;;;;13.77;5.20;;;35.90;76.20;;;;;;5024684;28;20041;-55
2022/11/08 11:29:03;;;;;;;8.88;5.07;;;35.50;75.80;;;;;;5028013;28;20032;-56
2022/11/08 11:32:33;;;;;;;5.75;4.40;;;33.70;78.60;;;;;;5027895;28;20059;-53
2022/11/08 11:35:44;;;;;;;6.60;4.20;;;32.80;78.20;;;;;;5042894;28;20048;-51
2022/11/08 11:39:06;;;;;;;6.20;4.00;;;31.50;78.40;;;;;;5038207;28;20400;-55
2022/11/08 11:42:41;;;;;;;7.03;3.80;;;32.10;79.10;;;;;;5030938;28;20056;-52
2022/11/08 11:46:13;;;;;;;5.13;3.70;;;31.90;78.70;;;;;;5028042;28;20052;-55
2022/11/08 11:49:21;;;;;;;7.93;3.90;;;31.50;81.30;;;;;;5026900;28;20663;-54
2022/11/08 11:52:25;;;;;;;10.30;3.83;;;30.00;82.70;;;;;;5028672;28;20046;-51
2022/11/08 11:56:04;;;;;;;8.93;3.78;;;32.50;80.60;;;;;;5024827;28;20052;-51
2022/11/08 11:59:11;;;;;;;3.45;2.83;;;33.90;79.20;;;;;;5020715;28;20519;-53
2022/11/08 12:02:41;;;;;;;5.88;3.17;;;33.80;78.90;;;;;;5025804;28;20525;-52
2022/11/08 12:05:45;;;;;;;4.57;2.70;;;33.20;79.00;;;;;;5026845;28;20040;-53
2022/11/08 12:08:48;;;;;;;8.10;2.97;;;33.60;78.40;;;;;;5022555;28;20522;-54
2022/11/08 12:12:31;;;;;;;8.30;3.30;;;33.50;78.00;;;;;;5029554;28;20045;-51
2022/11/08 12:15:46;;;;;;;5.72;3.17;;;33.70;79.70;;;;;;5025164;28;20038;-54
2022/11/08 12:19:16;;;;;;;6.72;3.47;;;30.90;81.20;;;;;;5023967;28;20397;-54
2022/11/08 12:22:57;;;;;;;7.28;2.90;;;31.70;81.50;;;;;;5033453;28;20033;-53
2022/11/08 12:26:14;;;;;;;6.28;2.97;;;31.20;80.50;;;;;;5030798;28;20055;-55
2022/11/08 12:29:29;;;;;;;5.50;3.15;;;31.50;81.50;;;;;;5030041;28;20395;-51
2022/11/08 12:32:36;;;;;;;9.95;3.38;;;33.10;80.00;;;;;;5029087;28;20496;-51
2022/11/08 12:35:52;;;;;;;5.40;2.58;;;31.20;80.40;;;;;;5027882;28;20044;-51
2022/11/08 12:39:14;;;;;;;5.85;2.75;;;31.80;81.40;;;;;;5040629;28;20044;-53
2022/11/08 12:42:49;;;;;;;7.30;2.88;;;32.80;80.80;;;;;;5024781;28;20038;-55
2022/11/08 12:46:09;;;;;;;5.97;2.40;;;32.20;80.50;;;;;;5027937;28;20497;-55
2022/11/08 12:49:35;;;;;;;6.72;2.50;;;32.70;78.90;;;;;;5021216;28;20048;-55
2022/11/08 12:52:54;;;;;;;5.38;2.83;;;32.70;80.30;;;;;;5030296;28;20048;-55
2022/11/08 12:55:58;;;;;;;5.28;1.42;;;34.40;78.90;;;;;;5027997;28;20050;-51
2022/11/08 12:59:02;;;;;;;5.25;2.17;;;34.60;76.90;;;;;;5021863;28;20034;-54
2022/11/08 13:02:19;;;;;;;4.78;1.83;;;32.80;77.10;;;;;;5020299;22;20417;-66
2022/11/08 13:05:27;;;;;;;5.07;1.92;;;33.20;78.40;;;;;;5006187;28;20041;-67
2022/11/08 13:08:45;;;;;;;5.65;2.65;;;32.20;79.50;;;;;;5009839;28;20425;-65
2022/11/08 13:12:00;;;;;;;5.13;2.60;;;28.90;82.10;;;;;;5013256;28;20398;-66
2022/11/08 13:15:17;;;;;;;4.28;2.55;;;27.50;86.70;;;;;;5005953;28;20034;-65
2022/11/08 13:18:23;;;;;;;7.40;3.05;;;27.30;88.90;;;;;;5007153;28;20045;-66
2022/11/08 13:21:33;;;;;;;5.45;2.40;;;27.90;87.90;;;;;;5004381;28;20052;-66
2022/11/08 13:24:40;;;;;;;4.85;2.60;;;30.20;85.00;;;;;;5007548;28;20042;-66
2022/11/08 13:27:44;;;;;;;5.43;2.42;;;29.80;83.90;;;;;;5004811;28;20034;-66
2022/11/08 13:30:59;;;;;;;6.53;2.90;;;29.00;84.30;;;;;;5005097;28;20429;-65
2022/11/08 13:34:36;;;;;;;8.15;3.47;;;25.50;90.60;;;;;;5010444;28;20052;-66
2022/11/08 13:37:51;;;;;;;8.13;3.20;;;23.90;93.30;;;;;;5005479;28;20056;-65
2022/11/08 13:41:15;;;;;;;5.22;3.45;;;23.20;94.60;;;;;;5008910;28;20043;-65
2022/11/08 13:44:53;;;;;;;10.65;4.95;;;23.70;94.80;;;;;;5009829;28;20034;-65
2022/11/08 13:48:00;;;;;;;8.82;4.13;;;24.50;92.90;;;;;;5012142;28;20037;-66
2022/11/08 13:51:25;;;;;;;10.15;4.30;;;24.00;93.90;;;;;;5020470;28;20422;-66
2022/11/08 13:54:48;;;;;;;9.98;4.30;;;23.70;94.20;;;;;;5006542;28;20056;-65
2022/11/08 13:58:00;;;;;;;7.25;3.75;;;23.60;94.80;;;;;;5010151;28;20064;-65
2022/11/08 14:01:18;;;;;;;8.05;4.00;;;24.50;94.30;;;;;;5018475;28;20040;-65
2022/11/08 14:04:37;;;;;;;9.88;3.92;;;24.40;94.10;;;;;;5012727;28;20054;-66
2022/11/08 14:07:53;;;;;;;5.78;3.80;;;24.40;93.80;;;;;;5013323;28;20030;-65
2022/11/08 14:11:28;;;;;;;8.00;3.83;;;24.20;94.60;;;;;;5010499;28;20055;-65
2022/11/08 14:15:13;;;;;;;7.38;3.90;;;24.00;94.60;;;;;;5006719;28;20041;-65
2022/11/08 14:18:27;;;;;;;8.07;4.18;;;22.60;96.50;;;;;;5008510;28;20040;-65
2022/11/08 14:21:32;;;;;;;10.00;4.00;;;21.60;98.30;;;;;;5012943;28;20508;-65
2022/11/08 14:24:37;;;;;;;6.57;4.07;;;20.50;99.90;;;;;;5017230;28;20507;-65
2022/11/08 14:27:41;;;;;;;7.55;4.43;;;20.50;99.90;;;;;;5010629;28;20444;-65
2022/11/08 14:30:49;;;;;;;9.25;5.95;;;20.30;99.90;;;;;;5006215;28;20050;-65
2022/11/08 14:33:54;;;;;;;12.18;6.57;;;20.10;99.90;;;;;;5005025;28;20515;-65
2022/11/08 14:37:00;;;;;;;12.88;5.88;;;19.90;99.90;;;;;;5011670;28;20046;-65
2022/11/08 14:40:05;;;;;;;13.85;6.80;;;19.70;99.90;;;;;;5014354;28;20056;-65
2022/11/08 14:43:11;;;;;;;9.65;4.93;;;19.40;99.90;;;;;;5011879;28;20082;-64
2022/11/08 14:46:30;;;;;;;7.55;4.97;;;19.20;99.90;;;;;;5018577;28;20038;-65
2022/11/08 14:49:37;;;;;;;10.30;3.90;;;19.00;99.90;;;;;;5010773;28;20493;-65
2022/11/08 14:52:40;;;;;;;9.45;4.60;;;18.80;99.90;;;;;;5018856;28;20053;-65
2022/11/08 14:55:44;;;;;;;9.48;5.03;;;19.30;99.90;;;;;;5020810;28;20034;-65
2022/11/08 14:58:51;;;;;;;9.60;4.80;;;19.70;99.90;;;;;;5019503;28;20046;-66
2022/11/08 15:01:57;;;;;;;9.07;4.50;;;19.50;99.90;;;;;;5018416;28;20037;-67
2022/11/08 15:05:02;;;;;;;9.05;5.40;;;19.10;99.90;;;;;;5019493;28;20034;-66
2022/11/08 15:08:18;;;;;;;11.40;5.30;;;18.90;99.90;;;;;;5004888;28;20038;-66
2022/11/08 15:11:36;;;;;;;11.02;5.38;;;18.60;99.90;;;;;;5012081;28;20393;-66
2022/11/08 15:14:57;;;;;;;14.15;5.97;;;18.50;99.90;;;;;;5012405;28;20045;-66
2022/11/08 15:18:16;;;;;;;9.18;4.97;;;18.40;99.90;;;;;;5019398;28;20507;-66
2022/11/08 15:21:28;;;;;;;11.05;4.72;;;18.30;99.90;;;;;;5016934;28;20037;-66
2022/11/08 15:24:36;;;;;;;8.40;4.03;;;18.20;99.90;;;;;;5014806;28;20049;-66
2022/11/08 15:27:45;;;;;;;8.27;4.05;;;18.10;99.90;;;;;;5021636;28;20041;-66
2022/11/08 15:30:59;;;;;;;9.38;4.18;;;18.00;99.90;;;;;;5021723;28;20033;-66
2022/11/08 15:34:04;;;;;;;9.13;3.97;;;18.00;99.90;;;;;;5021546;28;20409;-66
2022/11/08 15:37:34;;;;;;;75.72;31.23;;;17.90;99.90;;;;;;5023491;28;20053;-66
2022/11/08 15:40:51;;;;;;;34.33;14.10;;;17.60;99.90;;;;;;5006141;28;20385;-66
2022/11/08 15:44:20;;;;;;;18.38;7.95;;;17.40;99.90;;;;;;5009982;28;20040;-66
2022/11/08 15:47:53;;;;;;;25.52;10.38;;;17.40;99.90;;;;;;5005468;28;20045;-67
2022/11/08 15:50:57;;;;;;;33.03;14.90;;;17.50;99.90;;;;;;5021383;28;20053;-67
2022/11/08 15:54:00;;;;;;;159.65;65.97;;;17.50;99.90;;;;;;5016316;28;20056;-67
2022/11/08 15:57:04;;;;;;;160.52;61.90;;;17.40;99.90;;;;;;5016088;28;20057;-67
2022/11/08 16:00:27;;;;;;;67.90;28.30;;;17.30;99.90;;;;;;5008430;28;20069;-67
2022/11/08 16:03:32;;;;;;;69.43;29.80;;;17.30;99.90;;;;;;5013658;28;20048;-66
2022/11/08 16:06:36;;;;;;;29.00;14.05;;;17.30;99.90;;;;;;5000744;28;20041;-67
2022/11/08 16:09:41;;;;;;;18.33;9.65;;;17.30;99.90;;;;;;5006551;28;20048;-67
2022/11/08 16:12:46;;;;;;;22.38;10.30;;;17.20;99.90;;;;;;5008667;28;20049;-67
2022/11/08 16:15:50;;;;;;;18.30;11.15;;;17.20;99.90;;;;;;5020124;28;20045;-64
2022/11/08 16:18:54;;;;;;;21.65;10.80;;;17.20;99.90;;;;;;5010748;28;20515;-66
2022/11/08 16:22:06;;;;;;;19.55;9.50;;;17.30;99.90;;;;;;5008597;28;20045;-66
2022/11/08 16:25:11;;;;;;;15.20;9.35;;;17.20;99.90;;;;;;5003650;28;20647;-67
2022/11/08 16:28:21;;;;;;;16.83;11.55;;;17.30;99.90;;;;;;5010860;28;20045;-66
2022/11/08 16:31:25;;;;;;;17.85;9.35;;;17.30;99.90;;;;;;5011343;28;20057;-66
2022/11/08 16:34:29;;;;;;;23.05;12.15;;;17.30;99.90;;;;;;5008401;28;20057;-66